createdAt,value
2019-05-21T00:00:13.785Z,126.90
2019-05-21T00:01:13.763Z,145.40
2019-05-21T00:02:13.766Z,137.30
2019-05-21T00:03:13.746Z,147.20
2019-05-21T00:04:27.416Z,142.00
2019-05-21T00:05:14.749Z,152.30
2019-05-21T00:06:13.692Z,158.90
2019-05-21T00:07:13.678Z,165.00
2019-05-21T00:08:13.705Z,156.70
2019-05-21T00:09:13.658Z,129.80
2019-05-21T00:10:13.690Z,162.20
2019-05-21T00:11:13.640Z,155.60
2019-05-21T00:12:13.622Z,160.30
2019-05-21T00:13:13.643Z,153.50
2019-05-21T00:14:13.623Z,153.80
2019-05-21T00:15:13.625Z,155.70
2019-05-21T00:16:13.609Z,147.30
2019-05-21T00:17:13.569Z,153.00
2019-05-21T00:18:13.568Z,152.20
2019-05-21T00:19:13.549Z,164.50
2019-05-21T00:20:13.650Z,151.40
2019-05-21T00:21:13.592Z,153.10
2019-05-21T00:22:13.517Z,149.10
2019-05-21T00:23:13.533Z,131.50
2019-05-21T00:24:13.536Z,144.70
2019-05-21T00:25:17.040Z,149.00
2019-05-21T00:26:13.526Z,139.70
2019-05-21T00:27:13.465Z,140.60
2019-05-21T00:28:13.448Z,130.50
2019-05-21T00:29:13.463Z,133.60
2019-05-21T00:30:13.428Z,140.10
2019-05-21T00:31:13.437Z,126.10
2019-05-21T00:32:13.402Z,118.90
2019-05-21T00:33:13.393Z,111.10
2019-05-21T00:34:13.384Z,135.90
2019-05-21T00:35:13.372Z,135.90
2019-05-21T00:36:13.411Z,140.30
2019-05-21T00:37:13.352Z,149.20
2019-05-21T00:38:13.337Z,138.90
2019-05-21T00:39:13.331Z,130.70
2019-05-21T00:40:13.318Z,134.40
2019-05-21T00:41:13.344Z,147.70
2019-05-21T00:42:13.299Z,126.20
2019-05-21T00:43:13.284Z,134.50
2019-05-21T00:44:13.272Z,131.00
2019-05-21T00:45:13.299Z,118.10
2019-05-21T00:46:13.286Z,125.20
2019-05-21T00:47:13.246Z,114.60
2019-05-21T00:48:13.246Z,112.00
2019-05-21T00:49:13.213Z,78.90
2019-05-21T00:50:13.209Z,90.10
2019-05-21T00:51:13.233Z,84.70
2019-05-21T00:52:13.179Z,93.40
2019-05-21T00:53:13.169Z,77.60
2019-05-21T00:54:13.158Z,82.40
2019-05-21T00:55:13.146Z,80.90
2019-05-21T00:56:13.180Z,76.70
2019-05-21T00:57:13.164Z,82.10
2019-05-21T00:58:13.114Z,90.40
2019-05-21T00:59:13.103Z,86.80
2019-05-21T01:00:13.209Z,80.00
2019-05-21T01:01:13.082Z,77.20
2019-05-21T01:02:13.092Z,58.90
2019-05-21T01:03:13.081Z,68.30
2019-05-21T01:04:13.087Z,71.30
2019-05-21T02:24:17.662Z,49.50
2019-05-21T02:25:17.633Z,57.50
2019-05-21T02:26:17.617Z,59.40
2019-05-21T02:27:17.607Z,65.10
2019-05-21T02:28:17.597Z,56.10
2019-05-21T02:29:17.611Z,55.90
2019-05-21T02:30:17.579Z,63.20
2019-05-21T02:31:17.573Z,59.50
2019-05-21T02:32:17.558Z,50.40
2019-05-21T02:33:17.545Z,52.00
2019-05-21T02:34:17.559Z,54.30
2019-05-21T02:35:17.521Z,52.90
2019-05-21T02:36:17.509Z,47.70
2019-05-21T02:37:17.501Z,59.70
2019-05-21T02:38:17.486Z,50.90
2019-05-21T02:39:17.510Z,48.60
2019-05-21T02:40:17.465Z,56.20
2019-05-21T02:41:17.467Z,47.60
2019-05-21T02:42:17.443Z,47.30
2019-05-21T02:43:17.435Z,46.90
2019-05-21T02:44:17.444Z,56.40
2019-05-21T02:45:17.425Z,59.30
2019-05-21T02:46:17.403Z,65.40
2019-05-21T02:47:17.390Z,51.50
2019-05-21T02:48:17.378Z,55.40
2019-05-21T02:49:17.394Z,47.80
2019-05-21T02:50:17.356Z,48.60
2019-05-21T02:51:17.354Z,52.80
2019-05-21T02:52:17.335Z,52.70
2019-05-21T02:53:17.320Z,44.40
2019-05-21T02:54:17.439Z,53.30
2019-05-21T02:55:17.299Z,46.60
2019-05-21T02:56:17.294Z,50.90
2019-05-21T02:57:17.292Z,48.30
2019-05-21T02:58:17.284Z,41.50
2019-05-21T02:59:17.256Z,37.90
2019-05-21T03:00:17.270Z,38.50
2019-05-21T03:01:17.994Z,42.40
2019-05-21T03:02:17.221Z,38.90
2019-05-21T03:03:17.211Z,42.80
2019-05-21T03:04:17.230Z,42.10
2019-05-21T03:05:17.220Z,43.70
2019-05-21T03:06:17.186Z,35.30
2019-05-21T03:07:17.167Z,32.60
2019-05-21T03:08:17.158Z,42.50
2019-05-21T03:09:17.146Z,43.50
2019-05-21T03:10:17.180Z,44.20
2019-05-21T03:11:17.125Z,46.50
2019-05-21T03:12:17.116Z,48.70
2019-05-21T03:13:17.100Z,55.80
2019-05-21T03:14:17.100Z,30.10
2019-05-21T03:15:17.103Z,41.10
2019-05-21T03:16:17.106Z,41.70
2019-05-21T03:17:17.057Z,38.10
2019-05-21T03:18:17.046Z,40.90
2019-05-21T03:19:17.063Z,44.90
2019-05-21T03:20:17.049Z,38.40
2019-05-21T03:21:17.014Z,39.90
2019-05-21T03:22:17.014Z,32.10
2019-05-21T03:23:16.993Z,34.30
2019-05-21T03:24:16.980Z,36.60
2019-05-21T03:25:16.995Z,32.50
2019-05-21T03:26:16.962Z,32.80
2019-05-21T03:27:16.947Z,24.40
2019-05-21T03:28:16.946Z,32.00
2019-05-21T03:29:16.930Z,36.50
2019-05-21T03:30:16.940Z,35.50
2019-05-21T03:31:16.938Z,33.70
2019-05-21T03:32:16.929Z,34.10
2019-05-21T03:33:16.880Z,31.20
2019-05-21T03:34:16.912Z,30.40
2019-05-21T03:35:16.886Z,25.70
2019-05-21T03:36:31.813Z,30.80
2019-05-21T03:37:17.837Z,24.40
2019-05-21T03:38:16.828Z,28.20
2019-05-21T03:39:19.489Z,25.60
2019-05-21T03:40:16.861Z,35.20
2019-05-21T03:41:16.793Z,34.10
2019-05-21T03:42:16.784Z,34.40
2019-05-21T03:43:16.772Z,27.10
2019-05-21T03:44:16.762Z,27.10
2019-05-21T03:45:16.752Z,28.50
2019-05-21T03:46:16.774Z,35.60
2019-05-21T03:47:16.729Z,35.90
2019-05-21T03:48:16.717Z,38.50
2019-05-21T03:49:16.708Z,41.70
2019-05-21T03:50:16.699Z,40.20
2019-05-21T03:51:16.707Z,43.90
2019-05-21T03:52:16.702Z,39.70
2019-05-21T03:53:16.667Z,40.80
2019-05-21T03:54:16.652Z,40.30
2019-05-21T03:55:16.645Z,43.80
2019-05-21T03:56:16.655Z,46.00
2019-05-21T03:57:16.626Z,35.90
2019-05-21T03:58:16.643Z,37.30
2019-05-21T03:59:16.596Z,38.60
2019-05-21T04:00:16.585Z,38.10
2019-05-21T04:01:16.597Z,41.50
2019-05-21T04:02:16.565Z,39.20
2019-05-21T04:03:16.554Z,36.90
2019-05-21T04:04:16.560Z,42.00
2019-05-21T04:05:16.532Z,42.70
2019-05-21T04:06:16.543Z,37.40
2019-05-21T04:07:16.507Z,40.50
2019-05-21T04:08:16.499Z,43.40
2019-05-21T04:09:16.486Z,42.50
2019-05-21T04:10:16.493Z,37.60
2019-05-21T04:11:16.493Z,39.10
2019-05-21T04:12:16.455Z,47.50
2019-05-21T04:13:16.443Z,45.50
2019-05-21T04:14:16.431Z,47.70
2019-05-21T04:15:16.428Z,46.70
2019-05-21T04:16:16.479Z,48.00
2019-05-21T04:17:16.407Z,48.20
2019-05-21T04:18:16.390Z,37.20
2019-05-21T04:19:16.388Z,46.80
2019-05-21T04:20:16.380Z,51.10
2019-05-21T04:21:16.367Z,47.80
2019-05-21T04:22:16.383Z,52.80
2019-05-21T04:23:16.338Z,55.70
2019-05-21T04:24:16.331Z,56.60
2019-05-21T04:25:16.311Z,63.40
2019-05-21T04:26:16.305Z,55.40
2019-05-21T04:27:16.315Z,45.20
2019-05-21T04:28:16.293Z,56.70
2019-05-21T04:29:16.268Z,65.40
2019-05-21T04:30:16.255Z,62.60
2019-05-21T04:31:16.245Z,61.50
2019-05-21T04:32:16.259Z,55.10
2019-05-21T04:33:16.226Z,63.60
2019-05-21T04:34:16.232Z,59.70
2019-05-21T04:35:16.202Z,55.00
2019-05-21T04:36:16.191Z,60.10
2019-05-21T04:37:17.500Z,60.40
2019-05-21T04:38:16.191Z,57.40
2019-05-21T04:39:16.162Z,58.30
2019-05-21T04:40:16.164Z,59.20
2019-05-21T04:41:16.137Z,57.30
2019-05-21T04:42:16.147Z,64.40
2019-05-21T04:43:16.114Z,61.00
2019-05-21T04:44:16.107Z,54.70
2019-05-21T04:45:16.106Z,55.90
2019-05-21T04:46:16.103Z,53.60
2019-05-21T04:47:16.095Z,57.00
2019-05-21T04:48:16.058Z,68.70
2019-05-21T04:49:16.048Z,71.60
2019-05-21T04:50:16.038Z,69.20
2019-05-21T04:51:16.027Z,65.10
2019-05-21T04:52:16.066Z,63.60
2019-05-21T04:53:16.004Z,60.40
2019-05-21T04:54:15.991Z,65.00
2019-05-21T04:55:15.983Z,51.60
2019-05-21T04:56:15.970Z,55.80
2019-05-21T04:57:15.993Z,65.20
2019-05-21T04:58:15.961Z,59.10
2019-05-21T04:59:15.948Z,61.00
2019-05-21T05:00:15.930Z,55.90
2019-05-21T05:01:15.916Z,62.30
2019-05-21T05:02:15.959Z,60.30
2019-05-21T05:03:15.895Z,60.40
2019-05-21T05:04:21.139Z,61.90
2019-05-21T05:05:16.876Z,65.80
2019-05-21T05:06:15.880Z,63.80
2019-05-21T05:07:27.513Z,53.50
2019-05-21T05:08:16.861Z,72.10
2019-05-21T05:09:15.826Z,71.80
2019-05-21T05:10:15.817Z,63.70
2019-05-21T05:11:15.805Z,60.90
2019-05-21T05:12:15.810Z,63.70
2019-05-21T05:13:15.807Z,72.10
2019-05-21T05:14:15.772Z,81.30
2019-05-21T05:15:15.764Z,75.60
2019-05-21T05:16:15.760Z,75.50
2019-05-21T05:17:15.742Z,55.60
2019-05-21T05:18:15.754Z,59.00
2019-05-21T05:19:15.718Z,56.90
2019-05-21T05:20:15.713Z,60.50
2019-05-21T05:21:15.699Z,58.40
2019-05-21T05:22:15.702Z,48.70
2019-05-21T05:23:15.703Z,41.00
2019-05-21T05:24:15.665Z,54.20
2019-05-21T05:25:15.657Z,53.50
2019-05-21T05:26:15.646Z,42.20
2019-05-21T05:27:15.635Z,50.30
2019-05-21T05:28:15.664Z,44.80
2019-05-21T05:29:15.642Z,37.00
2019-05-21T05:30:15.600Z,39.60
2019-05-21T05:31:15.708Z,39.90
2019-05-21T05:32:15.580Z,36.40
2019-05-21T05:33:15.579Z,29.50
2019-05-21T05:34:15.577Z,23.80
2019-05-21T05:35:15.556Z,33.60
2019-05-21T05:36:15.539Z,26.80
2019-05-21T05:37:15.522Z,33.90
2019-05-21T05:38:15.513Z,33.70
2019-05-21T05:39:15.531Z,37.30
2019-05-21T05:40:15.514Z,38.80
2019-05-21T05:41:15.478Z,45.30
2019-05-21T05:42:15.466Z,50.10
2019-05-21T05:43:15.471Z,46.00
2019-05-21T05:44:15.482Z,45.20
2019-05-21T05:45:15.435Z,45.00
2019-05-21T05:46:15.429Z,40.00
2019-05-21T05:47:15.419Z,47.30
2019-05-21T05:48:15.425Z,45.10
2019-05-21T05:49:15.417Z,41.90
2019-05-21T05:50:15.379Z,40.90
2019-05-21T05:51:15.377Z,41.20
2019-05-21T05:52:15.360Z,39.60
2019-05-21T05:53:15.347Z,33.40
2019-05-21T05:54:15.367Z,34.00
2019-05-21T05:55:15.337Z,36.10
2019-05-21T05:56:15.333Z,42.20
2019-05-21T05:57:15.318Z,39.20
2019-05-21T05:58:15.336Z,41.00
2019-05-21T05:59:15.305Z,41.70
2019-05-21T06:00:15.282Z,49.20
2019-05-21T06:01:15.260Z,44.80
2019-05-21T06:02:15.250Z,44.60
2019-05-21T06:03:15.234Z,41.90
2019-05-21T06:04:15.252Z,44.60
2019-05-21T06:05:15.227Z,41.00
2019-05-21T06:06:15.203Z,36.30
2019-05-21T06:07:15.257Z,43.70
2019-05-21T06:08:15.182Z,45.80
2019-05-21T06:09:15.311Z,47.70
2019-05-21T06:10:15.175Z,40.70
2019-05-21T06:11:15.150Z,43.40
2019-05-21T06:12:15.872Z,42.10
2019-05-21T06:13:15.868Z,43.00
2019-05-21T06:14:15.174Z,49.20
2019-05-21T06:15:15.121Z,55.90
2019-05-21T06:16:15.106Z,50.40
2019-05-21T06:17:15.092Z,42.90
2019-05-21T06:18:15.089Z,48.40
2019-05-21T06:19:15.071Z,49.70
2019-05-21T06:20:15.118Z,56.80
2019-05-21T06:21:15.070Z,61.40
2019-05-21T06:22:15.027Z,56.60
2019-05-21T06:23:15.034Z,58.70
2019-05-21T06:24:15.009Z,61.20
2019-05-21T06:25:15.121Z,63.10
2019-05-21T06:26:14.983Z,76.60
2019-05-21T06:27:14.975Z,81.60
2019-05-21T06:28:14.982Z,80.80
2019-05-21T06:29:14.958Z,66.60
2019-05-21T06:30:14.970Z,77.70
2019-05-21T06:31:14.952Z,76.10
2019-05-21T06:32:14.925Z,76.90
2019-05-21T06:33:14.930Z,77.30
2019-05-21T06:34:14.923Z,76.90
2019-05-21T06:35:14.930Z,72.60
2019-05-21T06:36:14.887Z,77.20
2019-05-21T06:37:14.863Z,73.70
2019-05-21T06:38:17.977Z,81.10
2019-05-21T06:39:14.843Z,70.80
2019-05-21T06:40:14.895Z,71.10
2019-05-21T06:41:15.109Z,70.90
2019-05-21T06:42:14.814Z,72.30
2019-05-21T06:43:14.815Z,69.60
2019-05-21T06:44:14.809Z,71.60
2019-05-21T06:45:14.814Z,65.60
2019-05-21T06:46:14.775Z,68.00
2019-05-21T06:47:14.759Z,59.30
2019-05-21T06:48:14.751Z,62.50
2019-05-21T06:49:14.744Z,71.90
2019-05-21T06:50:14.755Z,61.70
2019-05-21T06:51:14.742Z,61.70
2019-05-21T06:52:14.772Z,63.80
2019-05-21T06:53:14.706Z,70.10
2019-05-21T06:54:14.731Z,59.40
2019-05-21T06:55:14.734Z,57.70
2019-05-21T06:56:14.659Z,65.00
2019-05-21T06:57:14.659Z,55.50
2019-05-21T06:58:14.655Z,58.70
2019-05-21T06:59:14.627Z,64.80
2019-05-21T07:00:14.648Z,59.20
2019-05-21T07:01:14.654Z,52.60
2019-05-21T07:02:14.599Z,59.80
2019-05-21T07:03:14.666Z,64.30
2019-05-21T07:04:14.650Z,62.70
2019-05-21T07:05:14.612Z,59.20
2019-05-21T07:06:14.564Z,57.00
2019-05-21T07:07:14.558Z,57.50
2019-05-21T07:08:14.546Z,61.50
2019-05-21T07:09:14.524Z,64.50
2019-05-21T07:10:14.550Z,64.30
2019-05-21T07:11:14.532Z,77.40
2019-05-21T07:12:14.643Z,71.50
2019-05-21T07:13:14.530Z,74.70
2019-05-21T07:14:14.465Z,68.80
2019-05-21T07:15:14.478Z,74.50
2019-05-21T07:16:14.520Z,72.80
2019-05-21T07:17:14.436Z,74.20
2019-05-21T07:18:14.418Z,83.00
2019-05-21T07:19:14.443Z,82.30
2019-05-21T07:20:14.456Z,88.80
2019-05-21T07:21:14.413Z,89.70
2019-05-21T07:22:14.432Z,78.10
2019-05-21T07:23:14.874Z,79.50
2019-05-21T07:24:14.360Z,71.50
2019-05-21T07:25:14.688Z,72.40
2019-05-21T07:26:14.356Z,84.10
2019-05-21T07:27:14.323Z,74.30
2019-05-21T07:28:14.314Z,72.30
2019-05-21T07:29:14.525Z,76.40
2019-05-21T07:30:14.284Z,81.90
2019-05-21T07:31:17.354Z,85.30
2019-05-21T07:32:14.263Z,78.80
2019-05-21T07:33:14.316Z,80.70
2019-05-21T07:34:14.258Z,88.60
2019-05-21T07:35:14.289Z,83.50
2019-05-21T07:36:14.245Z,75.00
2019-05-21T07:37:14.234Z,75.80
2019-05-21T07:38:14.202Z,86.60
2019-05-21T07:39:14.190Z,76.90
2019-05-21T07:40:14.181Z,82.60
2019-05-21T07:41:14.191Z,87.40
2019-05-21T07:42:14.155Z,103.40
2019-05-21T07:43:14.145Z,104.20
2019-05-21T07:44:14.247Z,101.10
2019-05-21T07:45:14.136Z,114.50
2019-05-21T07:46:14.148Z,125.00
2019-05-21T07:47:14.101Z,129.20
2019-05-21T07:48:14.094Z,164.60
2019-05-21T07:49:14.143Z,142.50
2019-05-21T07:50:14.066Z,130.70
2019-05-21T07:51:14.188Z,157.00
2019-05-21T07:52:14.125Z,129.80
2019-05-21T07:53:14.036Z,151.00
2019-05-21T07:54:14.037Z,125.60
2019-05-21T07:55:14.015Z,130.80
2019-05-21T07:56:14.025Z,141.70
2019-05-21T07:57:14.105Z,151.90
2019-05-21T07:58:14.093Z,127.20
2019-05-21T07:59:13.974Z,142.60
2019-05-21T08:00:13.961Z,128.40
2019-05-21T08:01:13.975Z,119.00
2019-05-21T08:02:13.970Z,110.30
2019-05-21T08:03:13.938Z,115.60
2019-05-21T08:04:14.014Z,118.50
2019-05-21T08:05:13.912Z,115.90
2019-05-21T08:06:15.092Z,98.40
2019-05-21T08:07:13.894Z,97.10
2019-05-21T08:08:13.874Z,116.00
2019-05-21T08:09:15.078Z,106.40
2019-05-21T08:10:13.872Z,101.00
2019-05-21T08:11:13.931Z,96.70
2019-05-21T08:12:35.550Z,88.90
2019-05-21T08:13:14.823Z,91.70
2019-05-21T08:14:13.819Z,67.90
2019-05-21T08:15:13.852Z,66.00
2019-05-21T08:16:13.816Z,67.10
2019-05-21T08:17:13.798Z,74.10
2019-05-21T08:18:13.778Z,72.20
2019-05-21T08:19:13.752Z,70.80
2019-05-21T08:20:13.742Z,61.00
2019-05-21T08:21:13.730Z,64.10
2019-05-21T08:22:13.755Z,64.00
2019-05-21T08:23:13.763Z,65.20
2019-05-21T08:24:13.706Z,69.00
2019-05-21T08:25:15.061Z,74.10
2019-05-21T08:26:13.675Z,72.60
2019-05-21T08:27:13.688Z,64.20
2019-05-21T08:28:13.662Z,67.20
2019-05-21T08:29:14.323Z,48.00
2019-05-21T08:30:13.724Z,52.90
2019-05-21T08:31:13.681Z,61.70
2019-05-21T08:32:13.633Z,54.00
2019-05-21T08:33:13.605Z,61.20
2019-05-21T08:34:13.600Z,61.10
2019-05-21T08:35:13.591Z,56.20
2019-05-21T08:36:13.569Z,53.40
2019-05-21T08:37:13.628Z,56.50
2019-05-21T08:38:13.546Z,56.70
2019-05-21T08:39:27.754Z,55.10
2019-05-21T08:40:14.527Z,56.30
2019-05-21T08:41:13.524Z,53.20
2019-05-21T08:42:13.563Z,54.00
2019-05-21T08:43:13.499Z,53.80
2019-05-21T08:44:13.477Z,54.80
2019-05-21T08:45:13.471Z,55.20
2019-05-21T08:46:13.456Z,56.60
2019-05-21T08:47:13.481Z,63.00
2019-05-21T08:48:13.475Z,57.60
2019-05-21T08:49:13.423Z,53.90
2019-05-21T08:50:13.417Z,46.20
2019-05-21T08:51:13.457Z,47.70
2019-05-21T08:52:13.429Z,50.50
2019-05-21T08:53:13.380Z,47.60
2019-05-21T08:54:13.398Z,43.30
2019-05-21T08:55:13.398Z,43.50
2019-05-21T08:56:13.382Z,45.10
2019-05-21T08:57:13.347Z,47.50
2019-05-21T08:58:13.387Z,52.70
2019-05-21T08:59:13.332Z,47.50
2019-05-21T09:00:13.335Z,46.10
2019-05-21T09:01:13.314Z,37.40
2019-05-21T09:02:13.312Z,34.10
2019-05-21T09:03:13.336Z,35.50
2019-05-21T09:04:13.284Z,37.00
2019-05-21T09:05:13.247Z,34.40
2019-05-21T09:06:13.248Z,33.60
2019-05-21T09:07:13.257Z,28.10
2019-05-21T09:08:13.287Z,24.80
2019-05-21T09:09:13.209Z,29.60
2019-05-21T09:10:13.214Z,26.00
2019-05-21T09:11:13.388Z,26.00
2019-05-21T09:12:13.187Z,26.00
2019-05-21T09:13:13.304Z,27.50
2019-05-21T09:14:13.152Z,27.30
2019-05-21T09:15:13.143Z,27.90
2019-05-21T09:16:13.126Z,27.80
2019-05-21T09:17:13.123Z,31.00
2019-05-21T09:18:13.187Z,29.20
2019-05-21T09:19:13.093Z,33.20
2019-05-21T09:20:13.129Z,30.10
2019-05-21T09:21:13.094Z,31.50
2019-05-21T09:22:13.061Z,28.30
2019-05-21T09:23:13.083Z,29.40
2019-05-21T09:24:13.090Z,31.40
2019-05-21T09:25:13.034Z,24.80
2019-05-21T09:26:13.051Z,30.70
2019-05-21T09:27:13.079Z,29.70
2019-05-21T09:28:13.069Z,26.90
2019-05-21T09:29:12.985Z,26.10
2019-05-21T09:30:13.009Z,26.50
2019-05-21T09:31:12.964Z,28.40
2019-05-21T09:32:12.958Z,28.10
2019-05-21T09:33:12.970Z,27.50
2019-05-21T09:34:12.960Z,27.60
2019-05-21T09:35:12.947Z,28.60
2019-05-21T09:36:12.996Z,29.70
2019-05-21T09:37:19.612Z,27.70
2019-05-21T09:38:13.909Z,27.60
2019-05-21T09:39:12.880Z,26.50
2019-05-21T09:40:12.894Z,32.50
2019-05-21T09:41:12.853Z,32.50
2019-05-21T09:42:12.844Z,33.40
2019-05-21T09:43:12.954Z,30.70
2019-05-21T09:44:12.821Z,32.80
2019-05-21T09:45:12.816Z,35.70
2019-05-21T09:46:12.871Z,33.90
2019-05-21T09:47:12.790Z,34.30
2019-05-21T09:48:12.776Z,36.30
2019-05-21T09:49:12.795Z,38.80
2019-05-21T09:50:12.764Z,38.80
2019-05-21T09:51:19.764Z,42.00
2019-05-21T09:52:13.734Z,41.70
2019-05-21T09:53:12.724Z,41.10
2019-05-21T09:54:12.745Z,39.60
2019-05-21T09:55:12.714Z,43.90
2019-05-21T09:56:12.690Z,41.00
2019-05-21T09:57:12.686Z,40.70
2019-05-21T09:58:12.724Z,37.10
2019-05-21T09:59:12.706Z,39.30
2019-05-21T10:00:12.670Z,34.00
2019-05-21T10:01:12.645Z,33.00
2019-05-21T10:02:12.623Z,33.60
2019-05-21T10:03:12.685Z,34.60
2019-05-21T10:04:12.626Z,36.80
2019-05-21T10:05:12.624Z,34.30
2019-05-21T10:06:12.584Z,36.20
2019-05-21T10:07:12.573Z,38.50
2019-05-21T10:08:12.562Z,36.90
2019-05-21T10:09:12.583Z,39.10
2019-05-21T10:10:12.543Z,38.90
2019-05-21T10:11:12.526Z,40.70
2019-05-21T10:12:12.516Z,41.00
2019-05-21T10:13:12.527Z,42.20
2019-05-21T10:14:12.521Z,37.30
2019-05-21T10:15:12.502Z,38.80
2019-05-21T10:16:12.504Z,38.40
2019-05-21T10:17:12.459Z,38.30
2019-05-21T10:18:12.574Z,44.80
2019-05-21T10:19:12.489Z,42.90
2019-05-21T10:20:12.458Z,43.50
2019-05-21T10:21:12.445Z,46.60
2019-05-21T10:22:12.468Z,45.60
2019-05-21T10:23:12.449Z,50.80
2019-05-21T10:24:12.394Z,51.50
2019-05-21T10:25:15.354Z,47.30
2019-05-21T10:26:12.379Z,56.70
2019-05-21T10:27:12.352Z,58.90
2019-05-21T10:28:12.399Z,53.50
2019-05-21T10:29:12.370Z,43.70
2019-05-21T10:30:12.379Z,47.60
2019-05-21T10:31:12.309Z,51.40
2019-05-21T10:32:12.298Z,50.90
2019-05-21T10:33:12.287Z,48.20
2019-05-21T10:34:13.433Z,52.80
2019-05-21T10:35:12.332Z,53.90
2019-05-21T10:36:12.319Z,52.40
2019-05-21T10:37:12.246Z,46.80
2019-05-21T10:38:12.238Z,49.90
2019-05-21T10:39:12.222Z,50.00
2019-05-21T10:40:12.233Z,46.00
2019-05-21T10:41:12.225Z,41.80
2019-05-21T10:42:12.188Z,51.00
2019-05-21T10:43:12.180Z,55.40
2019-05-21T10:44:12.165Z,54.30
2019-05-21T10:45:12.207Z,58.50
2019-05-21T10:46:12.148Z,51.20
2019-05-21T10:47:15.963Z,44.40
2019-05-21T10:48:12.122Z,51.70
2019-05-21T10:49:12.111Z,46.50
2019-05-21T10:50:12.125Z,52.10
2019-05-21T10:51:12.326Z,40.70
2019-05-21T10:52:12.085Z,39.70
2019-05-21T10:53:12.083Z,44.60
2019-05-21T10:54:12.061Z,46.50
2019-05-21T10:55:15.667Z,46.30
2019-05-21T10:56:12.036Z,42.40
2019-05-21T10:57:12.024Z,40.00
2019-05-21T10:58:12.019Z,38.40
2019-05-21T10:59:12.006Z,37.60
2019-05-21T11:00:12.035Z,34.00
2019-05-21T11:01:12.019Z,34.70
2019-05-21T11:02:11.970Z,35.10
2019-05-21T11:03:12.000Z,35.10
2019-05-21T11:04:11.956Z,31.30
2019-05-21T11:05:11.939Z,29.80
2019-05-21T11:06:11.995Z,29.70
2019-05-21T11:07:11.922Z,27.60
2019-05-21T11:08:23.461Z,28.20
2019-05-21T11:09:12.892Z,31.90
2019-05-21T11:10:11.949Z,30.60
2019-05-21T11:11:11.924Z,32.40
2019-05-21T11:12:11.860Z,32.90
2019-05-21T11:13:11.849Z,31.50
2019-05-21T11:14:11.890Z,30.00
2019-05-21T11:15:11.831Z,32.10
2019-05-21T11:16:11.895Z,32.80
2019-05-21T11:17:11.811Z,36.40
2019-05-21T11:18:12.195Z,35.90
2019-05-21T11:19:11.783Z,34.40
2019-05-21T11:20:11.777Z,35.60
2019-05-21T11:21:11.787Z,35.80
2019-05-21T11:22:11.756Z,34.60
2019-05-21T11:23:11.752Z,36.60
2019-05-21T11:24:11.745Z,41.30
2019-05-21T11:25:11.724Z,42.20
2019-05-21T11:26:11.735Z,47.70
2019-05-21T11:27:11.697Z,52.30
2019-05-21T11:28:11.696Z,46.30
2019-05-21T11:29:11.675Z,58.10
2019-05-21T11:30:11.690Z,48.90
2019-05-21T11:31:11.676Z,53.00
2019-05-21T11:32:11.646Z,43.60
2019-05-21T11:33:11.635Z,50.20
2019-05-21T11:34:11.626Z,49.40
2019-05-21T11:35:11.639Z,56.10
2019-05-21T11:36:11.632Z,53.90
2019-05-21T11:37:11.613Z,59.60
2019-05-21T11:38:11.589Z,60.40
2019-05-21T11:39:11.669Z,55.20
2019-05-21T11:40:11.558Z,61.90
2019-05-21T11:41:11.652Z,56.30
2019-05-21T11:42:11.548Z,58.60
2019-05-21T11:43:11.560Z,55.80
2019-05-21T11:44:11.529Z,58.40
2019-05-21T11:45:11.529Z,47.70
2019-05-21T11:46:11.516Z,45.80
2019-05-21T11:47:11.484Z,45.80
2019-05-21T11:48:11.504Z,48.00
2019-05-21T11:49:11.482Z,55.10
2019-05-21T11:50:11.457Z,60.50
2019-05-21T11:51:12.828Z,56.50
2019-05-21T11:52:11.464Z,53.70
2019-05-21T11:53:11.427Z,58.80
2019-05-21T11:54:11.551Z,61.40
2019-05-21T11:55:11.391Z,58.90
2019-05-21T11:56:11.410Z,48.20
2019-05-21T11:57:11.408Z,44.70
2019-05-21T11:58:11.365Z,53.90
2019-05-21T11:59:11.371Z,56.00
2019-05-21T12:00:11.344Z,55.70
2019-05-21T12:01:11.331Z,63.00
2019-05-21T12:02:11.378Z,63.70
2019-05-21T12:03:11.325Z,57.60
2019-05-21T12:04:11.352Z,56.60
2019-05-21T12:05:11.291Z,64.40
2019-05-21T12:06:11.297Z,47.80
2019-05-21T12:07:11.288Z,51.30
2019-05-21T12:08:11.306Z,58.40
2019-05-21T12:09:11.260Z,56.80
2019-05-21T12:10:11.251Z,54.80
2019-05-21T12:11:11.311Z,56.00
2019-05-21T12:12:11.234Z,52.50
2019-05-21T12:13:11.237Z,51.40
2019-05-21T12:14:11.183Z,48.70
2019-05-21T12:15:11.178Z,52.50
2019-05-21T12:16:11.161Z,55.70
2019-05-21T12:17:11.184Z,51.80
2019-05-21T12:18:11.164Z,55.00
2019-05-21T12:19:11.159Z,66.30
2019-05-21T12:20:11.131Z,54.00
2019-05-21T12:21:11.149Z,62.30
2019-05-21T12:22:11.242Z,64.20
2019-05-21T12:23:11.095Z,63.80
2019-05-21T12:24:11.116Z,62.40
2019-05-21T12:25:11.064Z,55.30
2019-05-21T12:26:11.055Z,51.60
2019-05-21T12:27:11.074Z,52.00
2019-05-21T12:28:11.549Z,51.00
2019-05-21T12:29:11.021Z,51.40
2019-05-21T12:30:11.049Z,58.50
2019-05-21T12:31:11.000Z,60.10
2019-05-21T12:32:11.035Z,56.60
2019-05-21T12:33:10.987Z,60.80
2019-05-21T12:34:10.994Z,60.40
2019-05-21T12:35:10.964Z,56.60
2019-05-21T12:36:10.946Z,59.30
2019-05-21T12:37:10.942Z,60.80
2019-05-21T12:38:10.950Z,62.60
2019-05-21T12:39:14.669Z,59.80
2019-05-21T12:40:10.901Z,71.80
2019-05-21T12:41:13.473Z,64.10
2019-05-21T12:42:10.883Z,54.40
2019-05-21T12:43:10.896Z,62.10
2019-05-21T12:44:10.857Z,71.60
2019-05-21T12:45:10.848Z,55.90
2019-05-21T12:46:10.840Z,59.80
2019-05-21T12:47:10.827Z,62.50
2019-05-21T12:48:10.842Z,66.20
2019-05-21T12:49:10.804Z,68.20
2019-05-21T12:50:10.802Z,56.10
2019-05-21T12:51:10.836Z,59.40
2019-05-21T12:52:10.777Z,64.40
2019-05-21T12:53:10.783Z,61.00
2019-05-21T12:54:10.748Z,60.70
2019-05-21T12:55:10.738Z,65.80
2019-05-21T12:56:10.733Z,58.10
2019-05-21T12:57:10.719Z,71.60
2019-05-21T12:58:10.728Z,69.10
2019-05-21T12:59:10.711Z,71.20
2019-05-21T13:00:10.700Z,61.60
2019-05-21T13:01:10.670Z,67.40
2019-05-21T13:02:10.663Z,71.30
2019-05-21T13:03:10.680Z,66.90
2019-05-21T13:04:10.657Z,64.50
2019-05-21T13:05:11.650Z,51.90
2019-05-21T13:06:10.627Z,66.60
2019-05-21T13:07:10.620Z,66.90
2019-05-21T13:08:10.620Z,54.60
2019-05-21T13:09:10.591Z,65.80
2019-05-21T13:10:10.580Z,63.20
2019-05-21T13:11:10.561Z,59.80
2019-05-21T13:12:10.550Z,63.50
2019-05-21T13:13:10.564Z,59.50
2019-05-21T13:14:14.049Z,71.80
2019-05-21T13:15:11.517Z,65.10
2019-05-21T13:16:10.511Z,64.20
2019-05-21T13:17:10.496Z,67.30
2019-05-21T13:18:10.512Z,74.20
2019-05-21T13:19:11.383Z,76.40
2019-05-21T13:20:10.669Z,63.20
2019-05-21T13:21:10.454Z,68.80
2019-05-21T13:22:10.458Z,60.70
2019-05-21T13:23:10.486Z,71.40
2019-05-21T13:24:10.419Z,70.40
2019-05-21T13:25:10.408Z,77.70
2019-05-21T13:26:10.397Z,76.10
2019-05-21T13:27:10.389Z,72.70
2019-05-21T13:28:10.413Z,61.50
2019-05-21T13:29:10.370Z,68.00
2019-05-21T13:30:10.399Z,84.50
2019-05-21T13:31:10.342Z,86.20
2019-05-21T13:32:10.337Z,78.50
2019-05-21T13:33:10.321Z,87.80
2019-05-21T13:34:10.333Z,79.50
2019-05-21T13:35:10.317Z,82.10
2019-05-21T13:36:10.297Z,86.70
2019-05-21T13:37:10.283Z,82.30
2019-05-21T13:38:13.512Z,86.40
2019-05-21T13:39:10.281Z,78.20
2019-05-21T13:40:10.246Z,89.90
2019-05-21T13:41:10.247Z,86.60
2019-05-21T13:42:10.236Z,97.90
2019-05-21T13:43:10.214Z,70.90
2019-05-21T13:44:10.243Z,90.10
2019-05-21T13:45:10.197Z,89.50
2019-05-21T13:46:10.186Z,90.10
2019-05-21T13:47:10.167Z,92.50
2019-05-21T13:48:10.171Z,100.80
2019-05-21T13:49:10.200Z,96.50
2019-05-21T13:50:10.141Z,96.00
2019-05-21T13:51:10.131Z,89.60
2019-05-21T13:52:10.115Z,98.60
2019-05-21T13:53:10.112Z,101.00
2019-05-21T13:54:10.118Z,105.00
2019-05-21T13:55:10.082Z,116.40
2019-05-21T13:56:10.087Z,124.70
2019-05-21T13:57:10.058Z,126.80
2019-05-21T13:58:10.055Z,83.10
2019-05-21T13:59:10.060Z,88.30
2019-05-21T14:00:10.212Z,91.20
2019-05-21T14:01:10.021Z,94.70
2019-05-21T14:02:10.033Z,91.60
2019-05-21T14:03:10.001Z,93.00
2019-05-21T14:04:10.007Z,95.20
2019-05-21T14:05:09.972Z,103.10
2019-05-21T14:06:09.985Z,104.00
2019-05-21T14:07:09.948Z,75.20
2019-05-21T14:08:09.939Z,69.40